sensor_id;sensor_type;location;lat;lon;timestamp;pressure;altitude;pressure_sealevel;temperature
61977;BMP280;45905;50.570;10.428;2023-04-29T00:01:32;97421.50;;;12.16
61977;BMP280;45905;50.570;10.428;2023-04-29T00:03:59;97416.13;;;12.11
61977;BMP280;45905;50.570;10.428;2023-04-29T00:06:26;97416.84;;;12.05
61977;BMP280;45905;50.570;10.428;2023-04-29T00:08:54;97419.09;;;12.01
61977;BMP280;45905;50.570;10.428;2023-04-29T00:11:21;97416.47;;;11.94
61977;BMP280;45905;50.570;10.428;2023-04-29T00:13:48;97413.69;;;11.89
61977;BMP280;45905;50.570;10.428;2023-04-29T00:16:16;97411.03;;;11.83
61977;BMP280;45905;50.570;10.428;2023-04-29T00:18:43;97426.63;;;11.80
61977;BMP280;45905;50.570;10.428;2023-04-29T00:21:10;97423.81;;;11.75
61977;BMP280;45905;50.570;10.428;2023-04-29T00:23:37;97424.50;;;11.69
61977;BMP280;45905;50.570;10.428;2023-04-29T00:26:04;97428.19;;;11.67
61977;BMP280;45905;50.570;10.428;2023-04-29T00:28:32;97427.75;;;11.63
61977;BMP280;45905;50.570;10.428;2023-04-29T00:30:59;97428.09;;;11.61
61977;BMP280;45905;50.570;10.428;2023-04-29T00:33:26;97423.19;;;11.59
61977;BMP280;45905;50.570;10.428;2023-04-29T00:35:53;97433.50;;;11.58
61977;BMP280;45905;50.570;10.428;2023-04-29T00:38:20;97430.00;;;11.59
61977;BMP280;45905;50.570;10.428;2023-04-29T00:40:47;97426.75;;;11.50
61977;BMP280;45905;50.570;10.428;2023-04-29T00:43:15;97434.19;;;11.52
61977;BMP280;45905;50.570;10.428;2023-04-29T00:45:42;97439.25;;;11.52
61977;BMP280;45905;50.570;10.428;2023-04-29T00:48:10;97430.88;;;11.51
61977;BMP280;45905;50.570;10.428;2023-04-29T00:50:37;97432.94;;;11.48
61977;BMP280;45905;50.570;10.428;2023-04-29T00:53:04;97429.81;;;11.46
61977;BMP280;45905;50.570;10.428;2023-04-29T00:55:32;97423.34;;;11.44
61977;BMP280;45905;50.570;10.428;2023-04-29T00:58:00;97421.13;;;11.41
61977;BMP280;45905;50.570;10.428;2023-04-29T01:00:29;97422.63;;;11.35
61977;BMP280;45905;50.570;10.428;2023-04-29T01:02:57;97426.28;;;11.33
61977;BMP280;45905;50.570;10.428;2023-04-29T01:05:26;97432.16;;;11.25
61977;BMP280;45905;50.570;10.428;2023-04-29T01:08:38;97428.56;;;10.98
61977;BMP280;45905;50.570;10.428;2023-04-29T01:11:10;97436.53;;;10.87
61977;BMP280;45905;50.570;10.428;2023-04-29T01:13:50;97440.81;;;10.87
61977;BMP280;45905;50.570;10.428;2023-04-29T01:16:29;97443.50;;;10.86
61977;BMP280;45905;50.570;10.428;2023-04-29T01:19:15;97444.94;;;10.88
61977;BMP280;45905;50.570;10.428;2023-04-29T01:21:47;97447.31;;;10.89
61977;BMP280;45905;50.570;10.428;2023-04-29T01:24:15;97452.38;;;10.89
61977;BMP280;45905;50.570;10.428;2023-04-29T01:26:58;97452.25;;;10.83
61977;BMP280;45905;50.570;10.428;2023-04-29T01:29:59;97451.63;;;10.81
61977;BMP280;45905;50.570;10.428;2023-04-29T01:41:38;97456.59;;;10.75
61977;BMP280;45905;50.570;10.428;2023-04-29T01:44:22;97443.13;;;10.74
61977;BMP280;45905;50.570;10.428;2023-04-29T01:46:52;97456.91;;;10.72
61977;BMP280;45905;50.570;10.428;2023-04-29T01:49:28;97464.22;;;10.67
61977;BMP280;45905;50.570;10.428;2023-04-29T01:51:55;97446.19;;;10.62
61977;BMP280;45905;50.570;10.428;2023-04-29T01:54:23;97452.69;;;10.65
61977;BMP280;45905;50.570;10.428;2023-04-29T01:56:50;97466.13;;;10.65
61977;BMP280;45905;50.570;10.428;2023-04-29T01:59:41;97461.84;;;10.66
61977;BMP280;45905;50.570;10.428;2023-04-29T02:02:30;97449.50;;;10.63
61977;BMP280;45905;50.570;10.428;2023-04-29T02:05:08;97472.94;;;10.65
61977;BMP280;45905;50.570;10.428;2023-04-29T02:07:40;97463.59;;;10.65
61977;BMP280;45905;50.570;10.428;2023-04-29T02:10:09;97465.34;;;10.65
61977;BMP280;45905;50.570;10.428;2023-04-29T02:12:39;97467.88;;;10.65
61977;BMP280;45905;50.570;10.428;2023-04-29T02:15:07;97458.38;;;10.67
61977;BMP280;45905;50.570;10.428;2023-04-29T02:17:35;97450.78;;;10.67
61977;BMP280;45905;50.570;10.428;2023-04-29T02:20:04;97453.31;;;10.67
61977;BMP280;45905;50.570;10.428;2023-04-29T02:22:32;97463.59;;;10.65
61977;BMP280;45905;50.570;10.428;2023-04-29T02:24:59;97471.50;;;10.62
61977;BMP280;45905;50.570;10.428;2023-04-29T02:27:26;97470.88;;;10.60
61977;BMP280;45905;50.570;10.428;2023-04-29T02:29:54;97468.34;;;10.60
61977;BMP280;45905;50.570;10.428;2023-04-29T02:32:21;97476.59;;;10.62
61977;BMP280;45905;50.570;10.428;2023-04-29T02:34:49;97477.38;;;10.63
61977;BMP280;45905;50.570;10.428;2023-04-29T02:37:18;97476.25;;;10.65
61977;BMP280;45905;50.570;10.428;2023-04-29T02:39:45;97467.72;;;10.66
61977;BMP280;45905;50.570;10.428;2023-04-29T02:42:13;97466.91;;;10.66
61977;BMP280;45905;50.570;10.428;2023-04-29T02:44:41;97464.22;;;10.67
61977;BMP280;45905;50.570;10.428;2023-04-29T02:47:08;97474.16;;;10.68
61977;BMP280;45905;50.570;10.428;2023-04-29T02:49:36;97458.00;;;10.69
61977;BMP280;45905;50.570;10.428;2023-04-29T02:52:03;97451.06;;;10.71
61977;BMP280;45905;50.570;10.428;2023-04-29T02:54:32;97454.38;;;10.72
61977;BMP280;45905;50.570;10.428;2023-04-29T02:56:59;97459.28;;;10.73
61977;BMP280;45905;50.570;10.428;2023-04-29T02:59:27;97456.44;;;10.76
61977;BMP280;45905;50.570;10.428;2023-04-29T03:01:54;97449.16;;;10.73
61977;BMP280;45905;50.570;10.428;2023-04-29T03:04:22;97453.88;;;10.76
61977;BMP280;45905;50.570;10.428;2023-04-29T03:06:50;97452.47;;;10.74
61977;BMP280;45905;50.570;10.428;2023-04-29T03:09:17;97451.53;;;10.75
61977;BMP280;45905;50.570;10.428;2023-04-29T03:11:46;97451.34;;;10.76
61977;BMP280;45905;50.570;10.428;2023-04-29T03:14:13;97453.88;;;10.76
61977;BMP280;45905;50.570;10.428;2023-04-29T03:16:41;97446.09;;;10.78
61977;BMP280;45905;50.570;10.428;2023-04-29T03:19:08;97451.16;;;10.78
61977;BMP280;45905;50.570;10.428;2023-04-29T03:21:36;97447.69;;;10.79
61977;BMP280;45905;50.570;10.428;2023-04-29T03:24:04;97444.97;;;10.80
61977;BMP280;45905;50.570;10.428;2023-04-29T03:26:33;97442.28;;;10.82
61977;BMP280;45905;50.570;10.428;2023-04-29T03:29:03;97437.22;;;10.82
61977;BMP280;45905;50.570;10.428;2023-04-29T03:31:32;97440.53;;;10.82
61977;BMP280;45905;50.570;10.428;2023-04-29T03:34:00;97447.97;;;10.84
61977;BMP280;45905;50.570;10.428;2023-04-29T03:36:29;97437.84;;;10.84
61977;BMP280;45905;50.570;10.428;2023-04-29T03:39:06;97441.97;;;10.85
61977;BMP280;45905;50.570;10.428;2023-04-29T03:41:34;97436.91;;;10.85
61977;BMP280;45905;50.570;10.428;2023-04-29T03:44:01;97434.38;;;10.85
61977;BMP280;45905;50.570;10.428;2023-04-29T03:46:29;97426.75;;;10.85
61977;BMP280;45905;50.570;10.428;2023-04-29T03:48:57;97438.44;;;10.86
61977;BMP280;45905;50.570;10.428;2023-04-29T03:51:25;97436.53;;;10.87
61977;BMP280;45905;50.570;10.428;2023-04-29T03:54:02;97437.00;;;10.91
61977;BMP280;45905;50.570;10.428;2023-04-29T03:56:30;97432.72;;;10.91
61977;BMP280;45905;50.570;10.428;2023-04-29T03:58:57;97439.38;;;10.92
61977;BMP280;45905;50.570;10.428;2023-04-29T04:01:26;97432.72;;;10.91
61977;BMP280;45905;50.570;10.428;2023-04-29T04:03:53;97429.25;;;10.92
61977;BMP280;45905;50.570;10.428;2023-04-29T04:06:21;97441.56;;;10.95
61977;BMP280;45905;50.570;10.428;2023-04-29T04:08:50;97450.75;;;10.96
61977;BMP280;45905;50.570;10.428;2023-04-29T04:11:23;97447.25;;;10.97
61977;BMP280;45905;50.570;10.428;2023-04-29T04:13:59;97457.38;;;10.97
61977;BMP280;45905;50.570;10.428;2023-04-29T04:16:27;97460.72;;;10.98
61977;BMP280;45905;50.570;10.428;2023-04-29T04:18:54;97460.56;;;10.99
61977;BMP280;45905;50.570;10.428;2023-04-29T04:21:21;97463.72;;;11.01
61977;BMP280;45905;50.570;10.428;2023-04-29T04:24:01;97463.72;;;11.01
61977;BMP280;45905;50.570;10.428;2023-04-29T04:26:29;97460.22;;;11.02
61977;BMP280;45905;50.570;10.428;2023-04-29T04:29:13;97474.44;;;11.03
61977;BMP280;45905;50.570;10.428;2023-04-29T04:31:58;97476.97;;;11.03
61977;BMP280;45905;50.570;10.428;2023-04-29T04:34:26;97475.06;;;11.05
61977;BMP280;45905;50.570;10.428;2023-04-29T04:36:56;97476.66;;;11.06
61977;BMP280;45905;50.570;10.428;2023-04-29T04:39:23;97479.34;;;11.05
61977;BMP280;45905;50.570;10.428;2023-04-29T04:41:52;97488.09;;;11.02
61977;BMP280;45905;50.570;10.428;2023-04-29T04:44:20;97489.84;;;11.02
61977;BMP280;45905;50.570;10.428;2023-04-29T04:47:04;97490.44;;;11.04
61977;BMP280;45905;50.570;10.428;2023-04-29T04:49:54;97489.50;;;11.05
61977;BMP280;45905;50.570;10.428;2023-04-29T04:52:22;97495.34;;;11.05
61977;BMP280;45905;50.570;10.428;2023-04-29T04:55:00;97502.00;;;11.06
61977;BMP280;45905;50.570;10.428;2023-04-29T04:57:29;97504.22;;;11.09
61977;BMP280;45905;50.570;10.428;2023-04-29T04:59:59;97505.78;;;11.10
61977;BMP280;45905;50.570;10.428;2023-04-29T05:02:27;97512.09;;;11.14
61977;BMP280;45905;50.570;10.428;2023-04-29T05:04:55;97513.66;;;11.15
61977;BMP280;45905;50.570;10.428;2023-04-29T05:07:25;97508.75;;;11.13
61977;BMP280;45905;50.570;10.428;2023-04-29T05:10:00;97520.94;;;11.18
61977;BMP280;45905;50.570;10.428;2023-04-29T05:12:29;97523.13;;;11.21
61977;BMP280;45905;50.570;10.428;2023-04-29T05:14:59;97516.94;;;11.23
61977;BMP280;45905;50.570;10.428;2023-04-29T05:17:28;97513.91;;;11.27
61977;BMP280;45905;50.570;10.428;2023-04-29T05:19:55;97521.19;;;11.30
61977;BMP280;45905;50.570;10.428;2023-04-29T05:22:22;97519.91;;;11.34
61977;BMP280;45905;50.570;10.428;2023-04-29T05:24:50;97525.25;;;11.39
61977;BMP280;45905;50.570;10.428;2023-04-29T05:27:19;97530.00;;;11.42
61977;BMP280;45905;50.570;10.428;2023-04-29T05:29:46;97533.59;;;11.47
61977;BMP280;45905;50.570;10.428;2023-04-29T05:32:14;97535.97;;;11.49
61977;BMP280;45905;50.570;10.428;2023-04-29T05:34:41;97534.69;;;11.53
61977;BMP280;45905;50.570;10.428;2023-04-29T05:37:10;97540.38;;;11.55
61977;BMP280;45905;50.570;10.428;2023-04-29T05:39:53;97547.47;;;11.59
61977;BMP280;45905;50.570;10.428;2023-04-29T05:42:20;97552.22;;;11.62
61977;BMP280;45905;50.570;10.428;2023-04-29T05:44:49;97563.94;;;11.63
61977;BMP280;45905;50.570;10.428;2023-04-29T05:47:17;97568.81;;;11.64
61977;BMP280;45905;50.570;10.428;2023-04-29T05:49:44;97556.16;;;11.64
61977;BMP280;45905;50.570;10.428;2023-04-29T05:52:11;97564.22;;;11.68
61977;BMP280;45905;50.570;10.428;2023-04-29T05:54:44;97567.53;;;11.68
61977;BMP280;45905;50.570;10.428;2023-04-29T05:57:11;97565.00;;;11.68
61977;BMP280;45905;50.570;10.428;2023-04-29T05:59:39;97573.09;;;11.72
61977;BMP280;45905;50.570;10.428;2023-04-29T06:02:07;97584.03;;;11.72
61977;BMP280;45905;50.570;10.428;2023-04-29T06:04:38;97588.75;;;11.75
61977;BMP280;45905;50.570;10.428;2023-04-29T06:07:27;97580.63;;;11.80
61977;BMP280;45905;50.570;10.428;2023-04-29T06:10:00;97588.06;;;11.81
61977;BMP280;45905;50.570;10.428;2023-04-29T06:12:28;97585.34;;;11.82
61977;BMP280;45905;50.570;10.428;2023-04-29T06:14:57;97594.38;;;11.85
61977;BMP280;45905;50.570;10.428;2023-04-29T06:17:25;97592.47;;;11.87
61977;BMP280;45905;50.570;10.428;2023-04-29T06:19:55;97599.13;;;11.88
61977;BMP280;45905;50.570;10.428;2023-04-29T06:22:23;97601.66;;;11.88
61977;BMP280;45905;50.570;10.428;2023-04-29T06:24:53;97605.00;;;11.88
61977;BMP280;45905;50.570;10.428;2023-04-29T06:27:28;97606.38;;;11.91
61977;BMP280;45905;50.570;10.428;2023-04-29T06:29:56;97614.78;;;11.91
61977;BMP280;45905;50.570;10.428;2023-04-29T06:32:23;97618.75;;;11.94
61977;BMP280;45905;50.570;10.428;2023-04-29T06:34:50;97612.88;;;11.93
61977;BMP280;45905;50.570;10.428;2023-04-29T06:37:27;97630.47;;;11.95
61977;BMP280;45905;50.570;10.428;2023-04-29T06:40:21;97626.69;;;11.91
61977;BMP280;45905;50.570;10.428;2023-04-29T06:43:02;97629.06;;;11.92
61977;BMP280;45905;50.570;10.428;2023-04-29T06:45:49;97632.38;;;11.93
61977;BMP280;45905;50.570;10.428;2023-04-29T06:48:19;97636.84;;;11.91
61977;BMP280;45905;50.570;10.428;2023-04-29T06:50:53;97637.03;;;11.89
61977;BMP280;45905;50.570;10.428;2023-04-29T06:53:22;97637.19;;;11.88
61977;BMP280;45905;50.570;10.428;2023-04-29T06:55:49;97641.31;;;11.89
61977;BMP280;45905;50.570;10.428;2023-04-29T06:58:19;97641.31;;;11.89
61977;BMP280;45905;50.570;10.428;2023-04-29T07:00:49;97647.78;;;11.91
61977;BMP280;45905;50.570;10.428;2023-04-29T07:03:17;97649.38;;;11.92
61977;BMP280;45905;50.570;10.428;2023-04-29T07:05:45;97661.88;;;11.94
61977;BMP280;45905;50.570;10.428;2023-04-29T07:08:13;97672.03;;;11.94
61977;BMP280;45905;50.570;10.428;2023-04-29T07:10:40;97668.72;;;11.93
61977;BMP280;45905;50.570;10.428;2023-04-29T07:13:08;97674.56;;;11.94
61977;BMP280;45905;50.570;10.428;2023-04-29T07:15:36;97669.50;;;11.94
61977;BMP280;45905;50.570;10.428;2023-04-29T07:18:06;97663.47;;;11.95
61977;BMP280;45905;50.570;10.428;2023-04-29T07:20:35;97672.19;;;11.92
61977;BMP280;45905;50.570;10.428;2023-04-29T07:23:03;97676.50;;;11.92
61977;BMP280;45905;50.570;10.428;2023-04-29T07:25:30;97678.06;;;11.93
61977;BMP280;45905;50.570;10.428;2023-04-29T07:27:57;97685.06;;;11.91
61977;BMP280;45905;50.570;10.428;2023-04-29T07:30:25;97694.94;;;11.86
61977;BMP280;45905;50.570;10.428;2023-04-29T07:32:52;97692.41;;;11.86
61977;BMP280;45905;50.570;10.428;2023-04-29T07:35:19;97702.22;;;11.89
61977;BMP280;45905;50.570;10.428;2023-04-29T07:37:46;97698.53;;;11.91
61977;BMP280;45905;50.570;10.428;2023-04-29T07:40:14;97696.00;;;11.91
61977;BMP280;45905;50.570;10.428;2023-04-29T07:42:42;97712.97;;;11.91
61977;BMP280;45905;50.570;10.428;2023-04-29T07:45:10;97700.63;;;11.88
61977;BMP280;45905;50.570;10.428;2023-04-29T07:47:39;97714.59;;;11.84
61977;BMP280;45905;50.570;10.428;2023-04-29T07:50:07;97702.44;;;11.80
61977;BMP280;45905;50.570;10.428;2023-04-29T07:52:34;97716.88;;;11.79
61977;BMP280;45905;50.570;10.428;2023-04-29T07:55:02;97713.38;;;11.80
61977;BMP280;45905;50.570;10.428;2023-04-29T07:57:29;97723.81;;;11.85
61977;BMP280;45905;50.570;10.428;2023-04-29T07:59:56;97724.28;;;11.88
61977;BMP280;45905;50.570;10.428;2023-04-29T08:02:23;97729.78;;;11.92
61977;BMP280;45905;50.570;10.428;2023-04-29T08:04:51;97738.19;;;11.92
61977;BMP280;45905;50.570;10.428;2023-04-29T08:07:22;97732.16;;;11.93
61977;BMP280;45905;50.570;10.428;2023-04-29T08:09:50;97732.00;;;11.95
61977;BMP280;45905;50.570;10.428;2023-04-29T08:12:17;97733.75;;;11.94
61977;BMP280;45905;50.570;10.428;2023-04-29T08:14:44;97739.47;;;11.96
61977;BMP280;45905;50.570;10.428;2023-04-29T08:17:12;97746.91;;;11.98
61977;BMP280;45905;50.570;10.428;2023-04-29T08:19:39;97743.41;;;11.99
61977;BMP280;45905;50.570;10.428;2023-04-29T08:22:06;97753.22;;;12.01
61977;BMP280;45905;50.570;10.428;2023-04-29T08:24:34;97748.13;;;12.01
61977;BMP280;45905;50.570;10.428;2023-04-29T08:27:01;97752.59;;;12.00
61977;BMP280;45905;50.570;10.428;2023-04-29T08:29:32;97752.59;;;12.00
61977;BMP280;45905;50.570;10.428;2023-04-29T08:32:00;97747.50;;;12.00
61977;BMP280;45905;50.570;10.428;2023-04-29T08:34:29;97760.19;;;12.00
61977;BMP280;45905;50.570;10.428;2023-04-29T08:36:57;97763.09;;;11.97
61977;BMP280;45905;50.570;10.428;2023-04-29T08:39:24;97763.09;;;11.97
61977;BMP280;45905;50.570;10.428;2023-04-29T08:41:51;97767.22;;;11.98
61977;BMP280;45905;50.570;10.428;2023-04-29T08:44:19;97771.94;;;12.01
61977;BMP280;45905;50.570;10.428;2023-04-29T08:46:47;97763.38;;;12.01
61977;BMP280;45905;50.570;10.428;2023-04-29T08:49:14;97768.91;;;12.05
61977;BMP280;45905;50.570;10.428;2023-04-29T08:51:41;97766.81;;;12.08
61977;BMP280;45905;50.570;10.428;2023-04-29T08:54:10;97772.53;;;12.10
61977;BMP280;45905;50.570;10.428;2023-04-29T08:56:38;97776.03;;;12.09
61977;BMP280;45905;50.570;10.428;2023-04-29T08:59:09;97782.41;;;12.05
61977;BMP280;45905;50.570;10.428;2023-04-29T09:01:39;97784.16;;;12.05
61977;BMP280;45905;50.570;10.428;2023-04-29T09:04:28;97793.84;;;12.01
61977;BMP280;45905;50.570;10.428;2023-04-29T09:06:58;97792.09;;;12.02
61977;BMP280;45905;50.570;10.428;2023-04-29T09:09:26;97797.00;;;12.03
61977;BMP280;45905;50.570;10.428;2023-04-29T09:11:54;97797.78;;;12.04
61977;BMP280;45905;50.570;10.428;2023-04-29T09:14:22;97802.88;;;12.04
61977;BMP280;45905;50.570;10.428;2023-04-29T09:16:50;97798.25;;;12.07
61977;BMP280;45905;50.570;10.428;2023-04-29T09:19:32;97804.56;;;12.11
61977;BMP280;45905;50.570;10.428;2023-04-29T09:22:04;97805.84;;;12.15
61977;BMP280;45905;50.570;10.428;2023-04-29T09:24:34;97803.56;;;12.20
61977;BMP280;45905;50.570;10.428;2023-04-29T09:27:01;97804.22;;;12.22
61977;BMP280;45905;50.570;10.428;2023-04-29T09:29:29;97815.59;;;12.26
61977;BMP280;45905;50.570;10.428;2023-04-29T09:31:59;97815.91;;;12.31
61977;BMP280;45905;50.570;10.428;2023-04-29T09:34:34;97812.41;;;12.32
61977;BMP280;45905;50.570;10.428;2023-04-29T09:37:22;97819.66;;;12.35
61977;BMP280;45905;50.570;10.428;2023-04-29T09:39:50;97817.13;;;12.35
61977;BMP280;45905;50.570;10.428;2023-04-29T09:42:17;97824.16;;;12.33
61977;BMP280;45905;50.570;10.428;2023-04-29T09:44:45;97828.09;;;12.35
61977;BMP280;45905;50.570;10.428;2023-04-29T09:47:12;97827.59;;;12.39
61977;BMP280;45905;50.570;10.428;2023-04-29T09:49:43;97823.16;;;12.41
61977;BMP280;45905;50.570;10.428;2023-04-29T09:52:13;97828.50;;;12.46
61977;BMP280;45905;50.570;10.428;2023-04-29T09:54:43;97824.47;;;12.52
61977;BMP280;45905;50.570;10.428;2023-04-29T09:57:12;97834.00;;;12.58
61977;BMP280;45905;50.570;10.428;2023-04-29T09:59:42;97833.34;;;12.63
61977;BMP280;45905;50.570;10.428;2023-04-29T10:02:14;97839.50;;;12.69
61977;BMP280;45905;50.570;10.428;2023-04-29T10:04:53;97842.81;;;12.69
61977;BMP280;45905;50.570;10.428;2023-04-29T10:07:24;97847.13;;;12.69
61977;BMP280;45905;50.570;10.428;2023-04-29T10:09:54;97843.28;;;12.73
61977;BMP280;45905;50.570;10.428;2023-04-29T10:12:23;97849.31;;;12.72
61977;BMP280;45905;50.570;10.428;2023-04-29T10:17:58;97844.53;;;12.77
61977;BMP280;45905;50.570;10.428;2023-04-29T10:20:29;97846.38;;;12.82
61977;BMP280;45905;50.570;10.428;2023-04-29T10:22:56;97850.00;;;12.88
61977;BMP280;45905;50.570;10.428;2023-04-29T10:25:25;97856.50;;;12.90
61977;BMP280;45905;50.570;10.428;2023-04-29T10:27:55;97862.84;;;12.94
61977;BMP280;45905;50.570;10.428;2023-04-29T10:30:22;97860.28;;;12.94
61977;BMP280;45905;50.570;10.428;2023-04-29T10:32:50;97864.41;;;12.95
61977;BMP280;45905;50.570;10.428;2023-04-29T10:35:21;97865.53;;;12.93
61977;BMP280;45905;50.570;10.428;2023-04-29T10:37:51;97860.88;;;12.96
61977;BMP280;45905;50.570;10.428;2023-04-29T10:40:39;97863.09;;;12.99
61977;BMP280;45905;50.570;10.428;2023-04-29T10:43:08;97864.06;;;12.98
61977;BMP280;45905;50.570;10.428;2023-04-29T10:45:35;97868.50;;;12.96
61977;BMP280;45905;50.570;10.428;2023-04-29T10:53:19;97868.47;;;13.04
61977;BMP280;45905;50.570;10.428;2023-04-29T10:55:52;97867.31;;;13.06
61977;BMP280;45905;50.570;10.428;2023-04-29T10:58:37;97870.16;;;13.11
61977;BMP280;45905;50.570;10.428;2023-04-29T11:01:06;97871.75;;;13.12
61977;BMP280;45905;50.570;10.428;2023-04-29T11:03:55;97875.03;;;13.20
61977;BMP280;45905;50.570;10.428;2023-04-29T11:06:38;97865.72;;;13.27
61977;BMP280;45905;50.570;10.428;2023-04-29T11:09:24;97858.81;;;13.35
61977;BMP280;45905;50.570;10.428;2023-04-29T11:14:50;97868.22;;;13.49
61977;BMP280;45905;50.570;10.428;2023-04-29T11:17:18;97861.28;;;13.57
61977;BMP280;45905;50.570;10.428;2023-04-29T11:19:51;97853.31;;;13.60
61977;BMP280;45905;50.570;10.428;2023-04-29T11:24:51;97864.91;;;13.77
61977;BMP280;45905;50.570;10.428;2023-04-29T11:27:21;97868.34;;;13.84
61977;BMP280;45905;50.570;10.428;2023-04-29T11:29:56;97858.34;;;13.82
61977;BMP280;45905;50.570;10.428;2023-04-29T11:32:29;97870.91;;;13.84
61977;BMP280;45905;50.570;10.428;2023-04-29T11:35:17;97869.31;;;13.83
61977;BMP280;45905;50.570;10.428;2023-04-29T11:37:46;97872.47;;;13.85
61977;BMP280;45905;50.570;10.428;2023-04-29T11:40:14;97872.47;;;13.85
61977;BMP280;45905;50.570;10.428;2023-04-29T11:42:47;97879.16;;;13.86
61977;BMP280;45905;50.570;10.428;2023-04-29T11:45:17;97886.81;;;13.86
61977;BMP280;45905;50.570;10.428;2023-04-29T11:47:46;97885.22;;;13.85
61977;BMP280;45905;50.570;10.428;2023-04-29T11:50:16;97889.69;;;13.83
61977;BMP280;45905;50.570;10.428;2023-04-29T11:52:47;97888.28;;;13.80
61977;BMP280;45905;50.570;10.428;2023-04-29T11:55:15;97894.50;;;13.78
61977;BMP280;45905;50.570;10.428;2023-04-29T11:57:42;97901.16;;;13.79
61977;BMP280;45905;50.570;10.428;2023-04-29T12:00:12;97897.38;;;13.75
61977;BMP280;45905;50.570;10.428;2023-04-29T12:02:44;97912.66;;;13.75
61977;BMP280;45905;50.570;10.428;2023-04-29T12:05:15;97903.78;;;13.71
61977;BMP280;45905;50.570;10.428;2023-04-29T12:07:43;97906.69;;;13.68
61977;BMP280;45905;50.570;10.428;2023-04-29T12:10:11;97914.06;;;13.63
61977;BMP280;45905;50.570;10.428;2023-04-29T12:12:39;97908.97;;;13.63
61977;BMP280;45905;50.570;10.428;2023-04-29T12:15:09;97915.97;;;13.61
61977;BMP280;45905;50.570;10.428;2023-04-29T12:17:38;97914.41;;;13.60
61977;BMP280;45905;50.570;10.428;2023-04-29T12:20:07;97916.31;;;13.58
61977;BMP280;45905;50.570;10.428;2023-04-29T12:22:38;97912.03;;;13.59
61977;BMP280;45905;50.570;10.428;2023-04-29T12:25:06;97915.34;;;13.59
61977;BMP280;45905;50.570;10.428;2023-04-29T12:27:35;97912.03;;;13.59
61977;BMP280;45905;50.570;10.428;2023-04-29T12:30:07;97922.03;;;13.60
61977;BMP280;45905;50.570;10.428;2023-04-29T12:32:36;97923.44;;;13.63
61977;BMP280;45905;50.570;10.428;2023-04-29T12:35:04;97918.78;;;13.66
61977;BMP280;45905;50.570;10.428;2023-04-29T12:37:32;97920.38;;;13.67
61977;BMP280;45905;50.570;10.428;2023-04-29T12:40:01;97919.25;;;13.70
61977;BMP280;45905;50.570;10.428;2023-04-29T12:42:32;97930.84;;;13.72
61977;BMP280;45905;50.570;10.428;2023-04-29T12:45:02;97937.69;;;13.72
61977;BMP280;45905;50.570;10.428;2023-04-29T12:47:33;97938.81;;;13.69
61977;BMP280;45905;50.570;10.428;2023-04-29T12:50:06;97956.72;;;13.61
61977;BMP280;45905;50.570;10.428;2023-04-29T12:52:33;97957.41;;;13.55
61977;BMP280;45905;50.570;10.428;2023-04-29T12:55:03;97962.38;;;13.49
61977;BMP280;45905;50.570;10.428;2023-04-29T12:57:30;97944.47;;;13.43
61977;BMP280;45905;50.570;10.428;2023-04-29T12:59:58;97956.28;;;13.36
61977;BMP280;45905;50.570;10.428;2023-04-29T13:02:25;97958.25;;;13.26
61977;BMP280;45905;50.570;10.428;2023-04-29T13:04:53;97955.78;;;13.18
61977;BMP280;45905;50.570;10.428;2023-04-29T13:07:21;97961.19;;;13.16
61977;BMP280;45905;50.570;10.428;2023-04-29T13:09:48;97964.25;;;13.11
61977;BMP280;45905;50.570;10.428;2023-04-29T13:12:15;97974.13;;;13.06
61977;BMP280;45905;50.570;10.428;2023-04-29T13:14:43;97972.91;;;13.02
61977;BMP280;45905;50.570;10.428;2023-04-29T13:17:11;97985.94;;;12.99
61977;BMP280;45905;50.570;10.428;2023-04-29T13:19:38;97977.28;;;12.86
61977;BMP280;45905;50.570;10.428;2023-04-29T13:22:17;97970.84;;;12.76
61977;BMP280;45905;50.570;10.428;2023-04-29T13:24:45;97979.91;;;12.71
61977;BMP280;45905;50.570;10.428;2023-04-29T13:27:12;97983.75;;;12.67
61977;BMP280;45905;50.570;10.428;2023-04-29T13:29:39;97975.19;;;12.60
61977;BMP280;45905;50.570;10.428;2023-04-29T13:32:07;97980.25;;;12.60
61977;BMP280;45905;50.570;10.428;2023-04-29T13:34:34;97971.03;;;12.59
61977;BMP280;45905;50.570;10.428;2023-04-29T13:37:02;97976.13;;;12.59
61977;BMP280;45905;50.570;10.428;2023-04-29T13:39:29;97972.63;;;12.60
61977;BMP280;45905;50.570;10.428;2023-04-29T13:41:56;97982.81;;;12.52
61977;BMP280;45905;50.570;10.428;2023-04-29T13:44:25;97978.06;;;12.49
61977;BMP280;45905;50.570;10.428;2023-04-29T13:47:05;97978.38;;;12.46
61977;BMP280;45905;50.570;10.428;2023-04-29T13:49:33;97981.88;;;12.45
61977;BMP280;45905;50.570;10.428;2023-04-29T13:52:20;97983.31;;;12.48
61977;BMP280;45905;50.570;10.428;2023-04-29T13:54:50;97985.69;;;12.49
61977;BMP280;45905;50.570;10.428;2023-04-29T13:57:37;97978.06;;;12.49
61977;BMP280;45905;50.570;10.428;2023-04-29T14:00:25;97978.06;;;12.49
61977;BMP280;45905;50.570;10.428;2023-04-29T14:03:12;97979.47;;;12.52
61977;BMP280;45905;50.570;10.428;2023-04-29T14:05:40;97980.63;;;12.49
61977;BMP280;45905;50.570;10.428;2023-04-29T14:08:08;97984.75;;;12.50
61977;BMP280;45905;50.570;10.428;2023-04-29T14:10:35;97990.78;;;12.49
61977;BMP280;45905;50.570;10.428;2023-04-29T14:13:02;97988.88;;;12.43
61977;BMP280;45905;50.570;10.428;2023-04-29T14:15:31;97984.78;;;12.42
61977;BMP280;45905;50.570;10.428;2023-04-29T14:17:58;97992.41;;;12.42
61977;BMP280;45905;50.570;10.428;2023-04-29T14:20:25;97995.88;;;12.41
61977;BMP280;45905;50.570;10.428;2023-04-29T14:22:52;97999.03;;;12.43
61977;BMP280;45905;50.570;10.428;2023-04-29T14:25:20;97995.88;;;12.41
61977;BMP280;45905;50.570;10.428;2023-04-29T14:27:47;98008.59;;;12.41
61977;BMP280;45905;50.570;10.428;2023-04-29T14:30:15;98011.13;;;12.41
61977;BMP280;45905;50.570;10.428;2023-04-29T14:32:42;98004.94;;;12.36
61977;BMP280;45905;50.570;10.428;2023-04-29T14:35:09;98013.03;;;12.39
61977;BMP280;45905;50.570;10.428;2023-04-29T14:37:36;98011.13;;;12.41